Terminal Aerodrome Forecast
Issued by NWS

Home | Current Version | Previous Version | Text Only | Print | Product List | Glossary On
Versions: 1 2 3 4 5 6 7 8 9 10 11 12
000
FTUS45 KABQ 282300
TAFFMN
TAF
KFMN 282328Z 2900/2924 VRB04KT P6SM FEW250
     FM290600 08007KT P6SM FEW250
     FM292000 28010KT P6SM SCT250=

USA.gov is the U.S. government's official web portal to all federal, state and local government web resources and services.